createdAt,value
2023-04-18T00:01:09.637Z,25.58
2023-04-18T00:03:38.331Z,25.40
2023-04-18T00:06:06.453Z,20.63
2023-04-18T00:08:36.420Z,25.35
2023-04-18T00:11:03.693Z,23.77
2023-04-18T00:13:30.890Z,22.38
2023-04-18T00:15:58.101Z,25.57
2023-04-18T00:18:26.718Z,23.67
2023-04-18T00:20:54.231Z,27.73
2023-04-18T00:23:22.384Z,23.70
2023-04-18T00:25:49.591Z,23.25
2023-04-18T00:28:16.818Z,22.53
2023-04-18T00:30:44.043Z,21.83
2023-04-18T00:33:11.556Z,21.45
2023-04-18T00:35:38.924Z,19.52
2023-04-18T00:38:08.294Z,19.45
2023-04-18T00:40:35.596Z,20.23
2023-04-18T00:43:03.071Z,19.05
2023-04-18T00:45:30.434Z,20.60
2023-04-18T00:47:57.838Z,19.45
2023-04-18T00:50:25.365Z,26.98
2023-04-18T00:52:53.575Z,17.90
2023-04-18T00:55:21.528Z,18.38
2023-04-18T00:57:48.878Z,17.58
2023-04-18T01:00:16.244Z,16.08
2023-04-18T01:02:44.099Z,17.67
2023-04-18T01:05:11.938Z,16.40
2023-04-18T01:07:42.307Z,14.77
2023-04-18T01:10:10.760Z,17.85
2023-04-18T01:12:38.031Z,15.38
2023-04-18T01:15:05.705Z,14.93
2023-04-18T01:17:34.647Z,15.20
2023-04-18T01:20:02.111Z,16.23
2023-04-18T01:22:29.537Z,16.45
2023-04-18T01:24:57.173Z,17.70
2023-04-18T01:27:24.408Z,22.52
2023-04-18T01:29:52.995Z,16.27
2023-04-18T01:32:21.213Z,18.40
2023-04-18T01:34:48.550Z,16.23
2023-04-18T01:37:15.688Z,13.63
2023-04-18T01:39:42.889Z,18.83
2023-04-18T01:42:10.242Z,16.03
2023-04-18T01:44:38.090Z,16.20
2023-04-18T01:47:05.890Z,14.00
2023-04-18T01:49:33.489Z,17.30
2023-04-18T01:52:00.704Z,15.55
2023-04-18T01:54:27.908Z,13.17
2023-04-18T01:56:55.237Z,16.80
2023-04-18T01:59:22.682Z,14.70
2023-04-18T02:01:49.991Z,17.42
2023-04-18T02:04:17.815Z,14.43
2023-04-18T02:06:46.976Z,18.33
2023-04-18T02:09:14.315Z,13.95
2023-04-18T02:11:43.474Z,13.43
2023-04-18T02:14:10.961Z,13.80
2023-04-18T02:16:38.906Z,18.77
2023-04-18T02:19:06.516Z,13.33
2023-04-18T02:21:34.310Z,14.70
2023-04-18T02:24:01.574Z,15.77
2023-04-18T02:26:28.794Z,18.80
2023-04-18T02:28:58.591Z,12.82
2023-04-18T02:31:25.929Z,16.43
2023-04-18T02:33:53.172Z,14.30
2023-04-18T02:36:22.232Z,12.85
2023-04-18T02:38:49.160Z,15.60
2023-04-18T02:41:19.393Z,13.80
2023-04-18T02:43:47.482Z,17.13
2023-04-18T02:46:15.907Z,13.20
2023-04-18T02:48:45.687Z,14.57
2023-04-18T02:51:13.992Z,16.77
2023-04-18T02:53:41.664Z,15.07
2023-04-18T02:56:09.067Z,13.97
2023-04-18T02:58:56.476Z,20.30
2023-04-18T03:01:46.362Z,15.15
2023-04-18T03:04:16.812Z,16.00
2023-04-18T03:06:50.896Z,16.95
2023-04-18T03:09:19.251Z,14.63
2023-04-18T03:11:51.252Z,13.88
2023-04-18T03:14:23.387Z,14.23
2023-04-18T03:16:55.336Z,16.35
2023-04-18T03:19:27.306Z,15.88
2023-04-18T03:21:56.130Z,15.60
2023-04-18T03:24:23.413Z,13.60
2023-04-18T03:26:53.185Z,16.17
2023-04-18T03:29:24.111Z,15.20
2023-04-18T03:31:51.266Z,17.40
2023-04-18T03:34:18.504Z,14.57
2023-04-18T03:36:47.953Z,14.70
2023-04-18T03:39:15.918Z,16.60
2023-04-18T03:41:43.318Z,16.05
2023-04-18T03:44:10.915Z,13.63
2023-04-18T03:46:40.707Z,15.80
2023-04-18T03:49:09.405Z,12.48
2023-04-18T03:51:44.307Z,14.40
2023-04-18T03:54:11.778Z,16.38
2023-04-18T03:56:39.346Z,14.82
2023-04-18T03:59:06.590Z,16.10
2023-04-18T04:01:34.097Z,18.10
2023-04-18T04:04:03.048Z,15.88
2023-04-18T04:06:32.120Z,16.95
2023-04-18T04:09:01.508Z,15.77
2023-04-18T04:11:29.517Z,16.43
2023-04-18T04:13:56.893Z,18.60
2023-04-18T04:16:29.005Z,16.70
2023-04-18T04:18:57.066Z,18.00
2023-04-18T04:21:31.382Z,15.60
2023-04-18T04:23:58.747Z,17.60
2023-04-18T04:26:39.618Z,17.42
2023-04-18T04:29:15.776Z,17.00
2023-04-18T04:31:44.802Z,16.08
2023-04-18T04:34:12.377Z,19.48
2023-04-18T04:36:41.206Z,14.07
2023-04-18T04:39:09.341Z,18.38
2023-04-18T04:41:54.010Z,18.48
2023-04-18T04:44:25.864Z,17.20
2023-04-18T04:46:54.830Z,21.17
2023-04-18T04:49:26.052Z,19.27
2023-04-18T04:51:53.319Z,18.40
2023-04-18T04:54:20.881Z,17.48
2023-04-18T04:56:48.320Z,19.42
2023-04-18T04:59:16.159Z,18.95
2023-04-18T05:01:46.689Z,15.93
2023-04-18T05:04:15.597Z,17.40
2023-04-18T05:06:43.139Z,14.15
2023-04-18T05:09:10.388Z,17.65
2023-04-18T05:11:37.594Z,19.55
2023-04-18T05:14:04.900Z,23.40
2023-04-18T05:16:32.238Z,19.75
2023-04-18T05:18:59.526Z,20.52
2023-04-18T05:21:28.617Z,19.02
2023-04-18T05:23:56.258Z,19.63
2023-04-18T05:26:23.539Z,21.87
2023-04-18T05:28:50.795Z,20.25
2023-04-18T05:31:18.106Z,18.95
2023-04-18T05:33:45.553Z,16.67
2023-04-18T05:36:12.664Z,16.92
2023-04-18T05:38:39.476Z,23.10
2023-04-18T05:41:06.688Z,19.35
2023-04-18T05:43:34.020Z,19.27
2023-04-18T05:46:01.339Z,16.98
2023-04-18T05:48:28.646Z,18.13
2023-04-18T05:50:55.901Z,14.97
2023-04-18T05:53:23.218Z,22.25
2023-04-18T05:55:50.675Z,15.63
2023-04-18T05:58:17.685Z,18.60
2023-04-18T06:00:44.977Z,20.17
2023-04-18T06:03:12.458Z,16.13
2023-04-18T06:05:41.046Z,17.08
2023-04-18T06:08:08.428Z,19.90
2023-04-18T06:10:37.723Z,19.58
2023-04-18T06:13:06.274Z,19.38
2023-04-18T06:15:33.529Z,17.33
2023-04-18T06:18:00.912Z,17.38
2023-04-18T06:20:28.193Z,16.83
2023-04-18T06:22:55.649Z,18.77
2023-04-18T06:25:22.476Z,17.15
2023-04-18T06:27:49.307Z,16.90
2023-04-18T06:30:16.602Z,18.50
2023-04-18T06:32:43.834Z,16.90
2023-04-18T06:35:10.982Z,18.83
2023-04-18T06:37:38.293Z,19.15
2023-04-18T06:40:05.939Z,19.03
2023-04-18T06:42:33.267Z,15.82
2023-04-18T06:45:00.215Z,16.02
2023-04-18T06:47:27.666Z,16.23
2023-04-18T06:49:54.938Z,21.27
2023-04-18T06:52:22.200Z,17.70
2023-04-18T06:54:49.450Z,15.57
2023-04-18T06:57:16.860Z,16.60
2023-04-18T06:59:43.939Z,15.43
2023-04-18T07:02:11.667Z,17.15
2023-04-18T07:04:39.028Z,13.93
2023-04-18T07:07:06.547Z,16.70
2023-04-18T07:09:33.829Z,18.65
2023-04-18T07:12:00.854Z,16.02
2023-04-18T07:14:28.470Z,15.77
2023-04-18T07:16:57.555Z,16.43
2023-04-18T07:19:24.978Z,17.40
2023-04-18T07:21:52.223Z,15.32
2023-04-18T07:24:19.771Z,17.17
2023-04-18T07:26:46.628Z,17.85
2023-04-18T07:29:13.825Z,16.37
2023-04-18T07:31:41.037Z,15.38
2023-04-18T07:34:09.160Z,16.20
2023-04-18T07:36:37.021Z,16.15
2023-04-18T07:39:04.336Z,14.77
2023-04-18T07:41:31.608Z,14.00
2023-04-18T07:43:59.089Z,14.77
2023-04-18T07:46:26.518Z,16.38
2023-04-18T07:48:53.849Z,19.60
2023-04-18T07:51:21.264Z,15.13
2023-04-18T07:53:48.581Z,16.63
2023-04-18T07:56:15.519Z,18.65
2023-04-18T07:58:42.406Z,14.50
2023-04-18T08:01:13.450Z,14.65
2023-04-18T08:03:40.929Z,15.98
2023-04-18T08:06:07.992Z,12.93
2023-04-18T08:08:36.228Z,12.75
2023-04-18T08:11:03.250Z,14.48
2023-04-18T08:13:30.239Z,14.43
2023-04-18T08:15:59.693Z,13.82
2023-04-18T08:18:26.672Z,14.67
2023-04-18T08:20:54.025Z,12.57
2023-04-18T08:23:21.344Z,11.35
2023-04-18T08:25:48.551Z,14.05
2023-04-18T08:28:15.800Z,10.77
2023-04-18T08:30:44.183Z,13.00
2023-04-18T08:33:11.629Z,11.90
2023-04-18T08:35:38.916Z,14.98
2023-04-18T08:38:05.775Z,11.85
2023-04-18T08:40:33.234Z,12.63
2023-04-18T08:43:05.110Z,11.00
2023-04-18T08:45:33.345Z,11.70
2023-04-18T08:48:03.196Z,12.73
2023-04-18T08:50:30.511Z,13.40
2023-04-18T08:52:57.729Z,12.07
2023-04-18T08:55:25.214Z,12.93
2023-04-18T08:57:54.646Z,12.85
2023-04-18T09:00:22.827Z,10.13
2023-04-18T09:02:50.824Z,11.20
2023-04-18T09:05:19.649Z,12.13
2023-04-18T09:07:48.204Z,12.37
2023-04-18T09:10:33.267Z,11.45
2023-04-18T09:13:03.015Z,12.77
2023-04-18T09:15:30.490Z,10.60
2023-04-18T09:17:59.462Z,14.32
2023-04-18T09:20:34.666Z,11.53
2023-04-18T09:23:04.051Z,11.48
2023-04-18T09:25:35.718Z,14.85
2023-04-18T09:28:04.612Z,9.25
2023-04-18T09:30:39.969Z,9.48
2023-04-18T09:33:12.692Z,9.10
2023-04-18T09:35:40.083Z,8.80
2023-04-18T09:38:07.845Z,13.68
2023-04-18T09:40:35.435Z,11.40
2023-04-18T09:43:18.600Z,9.18
2023-04-18T09:45:48.253Z,9.30
2023-04-18T09:48:15.831Z,8.55
2023-04-18T09:50:43.446Z,12.57
2023-04-18T09:53:11.767Z,9.30
2023-04-18T09:55:40.145Z,9.20
2023-04-18T09:58:08.791Z,9.63
2023-04-18T10:00:38.250Z,8.55
2023-04-18T10:03:09.909Z,9.15
2023-04-18T10:05:41.168Z,9.30
2023-04-18T10:08:09.499Z,10.85
2023-04-18T10:10:38.551Z,10.97
2023-04-18T10:13:08.467Z,11.35
2023-04-18T10:15:35.775Z,10.30
2023-04-18T10:18:09.156Z,12.60
2023-04-18T10:20:36.366Z,7.65
2023-04-18T10:23:31.440Z,9.83
2023-04-18T10:25:59.312Z,8.82
2023-04-18T10:28:27.680Z,11.05
2023-04-18T10:31:05.549Z,7.57
2023-04-18T10:33:42.356Z,9.63
2023-04-18T10:36:10.077Z,9.83
2023-04-18T10:38:44.934Z,14.20
2023-04-18T10:41:30.229Z,9.13
2023-04-18T10:44:15.604Z,11.70
2023-04-18T10:47:09.419Z,7.70
2023-04-18T10:49:37.088Z,9.20
2023-04-18T10:52:07.359Z,8.48
2023-04-18T10:55:04.895Z,7.38
2023-04-18T10:57:48.680Z,7.88
2023-04-18T11:00:21.933Z,10.43
2023-04-18T11:02:50.399Z,11.63
2023-04-18T11:05:23.302Z,8.48
2023-04-18T11:07:50.767Z,7.80
2023-04-18T11:10:22.661Z,8.82
2023-04-18T11:12:50.178Z,8.80
2023-04-18T11:15:22.335Z,8.65
2023-04-18T11:17:56.970Z,8.32
2023-04-18T11:20:24.409Z,10.70
2023-04-18T11:22:58.698Z,8.35
2023-04-18T11:25:37.225Z,9.32
2023-04-18T11:28:05.064Z,11.38
2023-04-18T11:30:39.683Z,9.60
2023-04-18T11:33:16.892Z,10.32
2023-04-18T11:35:45.738Z,9.40
2023-04-18T11:38:14.129Z,10.55
2023-04-18T11:40:51.116Z,11.30
2023-04-18T11:43:23.778Z,9.77
2023-04-18T11:45:59.027Z,9.30
2023-04-18T11:48:42.553Z,11.73
2023-04-18T11:51:36.209Z,10.20
2023-04-18T11:54:03.901Z,12.87
2023-04-18T11:56:32.254Z,10.88
2023-04-18T11:58:59.880Z,11.20
2023-04-18T12:01:27.255Z,9.60
2023-04-18T12:04:08.047Z,11.27
2023-04-18T12:06:52.455Z,12.65
2023-04-18T12:09:21.347Z,10.52
2023-04-18T12:12:08.541Z,12.23
2023-04-18T12:14:36.221Z,12.85
2023-04-18T12:17:03.846Z,11.98
2023-04-18T12:19:32.633Z,12.23
2023-04-18T12:22:01.648Z,12.02
2023-04-18T12:24:29.116Z,13.18
2023-04-18T12:26:58.060Z,18.98
2023-04-18T12:29:29.205Z,13.75
2023-04-18T12:31:56.714Z,15.63
2023-04-18T12:34:24.180Z,12.80
2023-04-18T12:36:51.538Z,16.27
2023-04-18T12:39:18.885Z,14.38
2023-04-18T12:41:47.664Z,14.10
2023-04-18T12:44:16.814Z,15.45
2023-04-18T12:46:44.106Z,13.98
2023-04-18T12:49:11.577Z,14.35
2023-04-18T12:51:38.947Z,13.75
2023-04-18T12:54:06.276Z,13.15
2023-04-18T12:56:33.155Z,12.17
2023-04-18T12:59:00.535Z,14.30
2023-04-18T13:01:27.997Z,16.10
2023-04-18T13:04:04.347Z,15.95
2023-04-18T13:06:38.497Z,15.02
2023-04-18T13:09:05.867Z,14.13
2023-04-18T13:11:33.116Z,15.02
2023-04-18T13:14:00.393Z,13.20
2023-04-18T13:16:27.788Z,14.40
2023-04-18T13:18:55.197Z,14.45
2023-04-18T13:21:25.021Z,15.05
2023-04-18T13:23:52.402Z,14.82
2023-04-18T13:26:19.724Z,16.02
2023-04-18T13:28:46.913Z,14.75
2023-04-18T13:31:16.840Z,14.48
2023-04-18T13:33:44.522Z,15.52
2023-04-18T13:36:11.822Z,18.27
2023-04-18T13:38:39.573Z,19.52
2023-04-18T13:41:12.754Z,14.43
2023-04-18T13:43:40.599Z,15.30
2023-04-18T13:46:07.999Z,20.17
2023-04-18T13:48:35.366Z,20.23
2023-04-18T13:51:02.899Z,14.07
2023-04-18T13:53:31.099Z,18.25
2023-04-18T13:55:59.123Z,17.70
2023-04-18T13:58:26.400Z,16.58
2023-04-18T14:00:54.002Z,16.20
2023-04-18T14:03:21.556Z,15.82
2023-04-18T14:05:48.984Z,18.15
2023-04-18T14:08:15.975Z,16.77
2023-04-18T14:10:43.237Z,17.73
2023-04-18T14:13:10.104Z,18.70
2023-04-18T14:15:37.549Z,15.88
2023-04-18T14:18:04.929Z,14.80
2023-04-18T14:20:34.699Z,16.85
2023-04-18T14:23:02.229Z,15.07
2023-04-18T14:25:30.173Z,18.50
2023-04-18T14:28:09.671Z,18.65
2023-04-18T14:30:37.577Z,18.17
2023-04-18T14:33:05.249Z,17.80
2023-04-18T14:35:32.615Z,16.55
2023-04-18T14:37:59.894Z,15.38
2023-04-18T14:40:27.477Z,19.00
2023-04-18T14:42:54.272Z,19.27
2023-04-18T14:45:22.098Z,17.13
2023-04-18T14:47:49.376Z,16.13
2023-04-18T14:50:16.341Z,15.05
2023-04-18T14:52:43.575Z,14.68
2023-04-18T14:55:11.239Z,13.93
2023-04-18T14:57:38.971Z,19.90
2023-04-18T15:00:11.437Z,16.33
2023-04-18T15:02:39.317Z,14.45
2023-04-18T15:05:08.005Z,15.15
2023-04-18T15:07:36.990Z,14.45
2023-04-18T15:10:05.283Z,15.88
2023-04-18T15:12:33.191Z,15.82
2023-04-18T15:15:00.666Z,15.60
2023-04-18T15:17:28.350Z,17.02
2023-04-18T15:19:55.654Z,18.52
2023-04-18T15:22:22.780Z,17.13
2023-04-18T15:24:50.299Z,15.73
2023-04-18T15:27:17.869Z,13.57
2023-04-18T15:29:45.498Z,14.75
2023-04-18T15:32:14.348Z,15.15
2023-04-18T15:34:41.784Z,16.63
2023-04-18T15:37:09.579Z,16.58
2023-04-18T15:39:37.052Z,16.75
2023-04-18T15:42:04.016Z,15.15
2023-04-18T15:44:31.357Z,15.82
2023-04-18T15:47:01.087Z,17.38
2023-04-18T15:49:28.459Z,15.95
2023-04-18T15:51:56.922Z,15.68
2023-04-18T15:54:23.887Z,15.30
2023-04-18T15:56:51.079Z,17.88
2023-04-18T15:59:17.905Z,15.15
2023-04-18T16:01:46.120Z,16.00
2023-04-18T16:04:13.620Z,14.33
2023-04-18T16:06:41.349Z,12.98
2023-04-18T16:09:08.618Z,15.57
2023-04-18T16:11:35.989Z,14.70
2023-04-18T16:14:03.276Z,14.38
2023-04-18T16:16:30.316Z,17.33
2023-04-18T16:18:57.144Z,15.20
2023-04-18T16:21:24.015Z,16.00
2023-04-18T16:23:50.972Z,16.17
2023-04-18T16:26:19.706Z,14.52
2023-04-18T16:28:48.247Z,14.17
2023-04-18T16:31:16.122Z,13.18
2023-04-18T16:33:43.049Z,14.80
2023-04-18T16:36:10.000Z,14.70
2023-04-18T16:38:37.259Z,15.55
2023-04-18T16:41:04.214Z,12.13
2023-04-18T16:43:31.241Z,13.93
2023-04-18T16:46:00.231Z,12.35
2023-04-18T16:48:29.203Z,12.90
2023-04-18T16:50:56.407Z,12.38
2023-04-18T16:53:24.016Z,13.77
2023-04-18T16:55:52.208Z,12.45
2023-04-18T16:58:21.108Z,14.00
2023-04-18T17:00:48.075Z,11.48
2023-04-18T17:03:15.565Z,14.05
2023-04-18T17:05:42.527Z,12.77
2023-04-18T17:08:09.317Z,13.90
2023-04-18T17:10:36.165Z,15.85
2023-04-18T17:13:03.637Z,14.50
2023-04-18T17:15:31.011Z,14.15
2023-04-18T17:18:00.340Z,12.00
2023-04-18T17:20:28.345Z,14.82
2023-04-18T17:22:55.687Z,16.48
2023-04-18T17:25:22.897Z,16.10
2023-04-18T17:27:49.812Z,13.50
2023-04-18T17:30:17.115Z,18.25
2023-04-18T17:32:46.136Z,16.48
2023-04-18T17:35:14.708Z,14.57
2023-04-18T17:37:42.961Z,15.77
2023-04-18T17:40:11.583Z,19.13
2023-04-18T17:42:38.807Z,17.83
2023-04-18T17:45:09.586Z,15.82
2023-04-18T17:47:36.921Z,16.10
2023-04-18T17:50:05.025Z,14.63
2023-04-18T17:52:31.866Z,15.88
2023-04-18T17:55:01.745Z,12.55
2023-04-18T17:57:30.441Z,14.02
2023-04-18T17:59:57.784Z,12.45
2023-04-18T18:02:25.401Z,14.82
2023-04-18T18:04:52.908Z,13.38
2023-04-18T18:07:20.180Z,17.58
2023-04-18T18:09:47.439Z,15.93
2023-04-18T18:12:14.731Z,15.30
2023-04-18T18:14:41.778Z,12.45
2023-04-18T18:17:09.178Z,14.40
2023-04-18T18:19:36.706Z,19.08
2023-04-18T18:22:04.004Z,14.93
2023-04-18T18:24:31.528Z,14.70
2023-04-18T18:26:59.508Z,12.93
2023-04-18T18:29:26.451Z,11.80
2023-04-18T18:31:53.432Z,13.10
2023-04-18T18:34:21.578Z,11.80
2023-04-18T18:36:49.173Z,14.13
2023-04-18T18:39:16.791Z,16.73
2023-04-18T18:41:44.273Z,13.70
2023-04-18T18:44:11.656Z,15.88
2023-04-18T18:46:39.008Z,16.35
2023-04-18T18:49:06.325Z,22.30
2023-04-18T18:51:33.262Z,17.65
2023-04-18T18:54:00.482Z,16.92
2023-04-18T18:56:27.769Z,15.48
2023-04-18T18:58:55.610Z,18.02
2023-04-18T19:01:23.174Z,14.60
2023-04-18T19:03:50.608Z,17.13
2023-04-18T19:06:17.546Z,14.17
2023-04-18T19:08:44.446Z,15.02
2023-04-18T19:11:12.818Z,14.70
2023-04-18T19:13:40.184Z,16.13
2023-04-18T19:16:07.464Z,21.30
2023-04-18T19:18:34.763Z,14.90
2023-04-18T19:21:02.039Z,13.63
2023-04-18T19:23:30.917Z,15.48
2023-04-18T19:25:58.390Z,14.52
2023-04-18T19:28:25.868Z,15.23
2023-04-18T19:30:53.182Z,16.37
2023-04-18T19:33:21.349Z,14.18
2023-04-18T19:35:48.616Z,20.10
2023-04-18T19:38:15.820Z,13.80
2023-04-18T19:40:43.323Z,15.40
2023-04-18T19:43:10.635Z,13.87
2023-04-18T19:45:38.060Z,14.82
2023-04-18T19:48:05.489Z,14.13
2023-04-18T19:50:32.982Z,17.23
2023-04-18T19:53:00.294Z,18.52
2023-04-18T19:55:27.272Z,14.97
2023-04-18T19:57:56.356Z,17.65
2023-04-18T20:00:23.812Z,15.30
2023-04-18T20:02:51.478Z,14.25
2023-04-18T20:05:19.093Z,14.32
2023-04-18T20:07:46.152Z,14.70
2023-04-18T20:10:15.455Z,13.90
2023-04-18T20:12:42.389Z,16.45
2023-04-18T20:15:12.400Z,15.68
2023-04-18T20:17:39.693Z,16.05
2023-04-18T20:20:09.345Z,13.13
2023-04-18T20:22:37.932Z,14.52
2023-04-18T20:25:05.811Z,13.82
2023-04-18T20:27:33.056Z,15.38
2023-04-18T20:30:00.402Z,11.32
2023-04-18T20:32:28.035Z,11.73
2023-04-18T20:34:55.385Z,13.57
2023-04-18T20:37:22.810Z,12.15
2023-04-18T20:39:50.172Z,12.75
2023-04-18T20:42:17.490Z,15.32
2023-04-18T20:44:46.768Z,12.63
2023-04-18T20:47:15.666Z,12.48
2023-04-18T20:49:43.127Z,14.50
2023-04-18T20:52:10.627Z,13.27
2023-04-18T20:54:38.055Z,12.23
2023-04-18T20:57:05.308Z,14.03
2023-04-18T20:59:32.506Z,13.45
2023-04-18T21:02:00.141Z,12.93
2023-04-18T21:04:27.867Z,13.35
2023-04-18T21:06:55.161Z,12.23
2023-04-18T21:09:22.396Z,13.43
2023-04-18T21:11:49.903Z,12.65
2023-04-18T21:14:17.513Z,14.02
2023-04-18T21:16:44.628Z,12.48
2023-04-18T21:19:12.002Z,13.25
2023-04-18T21:21:39.288Z,14.50
2023-04-18T21:24:06.697Z,12.18
2023-04-18T21:26:33.968Z,12.80
2023-04-18T21:29:04.782Z,14.32
2023-04-18T21:31:33.385Z,13.18
2023-04-18T21:34:02.417Z,11.30
2023-04-18T21:36:30.941Z,12.82
2023-04-18T21:38:59.766Z,16.77
2023-04-18T21:41:27.186Z,12.43
2023-04-18T21:43:54.666Z,11.63
2023-04-18T21:46:21.972Z,12.20
2023-04-18T21:48:49.061Z,13.60
2023-04-18T21:51:16.817Z,12.50
2023-04-18T21:53:44.446Z,11.38
2023-04-18T21:56:11.952Z,13.82
2023-04-18T21:58:38.786Z,13.13
2023-04-18T22:01:05.826Z,11.32
2023-04-18T22:03:34.156Z,13.90
2023-04-18T22:06:02.063Z,12.35
2023-04-18T22:08:29.587Z,12.38
2023-04-18T22:10:58.920Z,12.90
2023-04-18T22:13:30.160Z,14.63
2023-04-18T22:15:58.241Z,16.20
2023-04-18T22:18:26.091Z,12.27
2023-04-18T22:20:53.902Z,12.85
2023-04-18T22:23:21.179Z,14.33
2023-04-18T22:25:48.557Z,11.90
2023-04-18T22:28:15.936Z,13.13
2023-04-18T22:30:42.948Z,12.20
2023-04-18T22:33:10.222Z,11.65
2023-04-18T22:35:37.097Z,12.27
2023-04-18T22:38:04.032Z,11.18
2023-04-18T22:40:31.198Z,13.82
2023-04-18T22:42:58.588Z,11.60
2023-04-18T22:45:25.852Z,13.73
2023-04-18T22:47:53.339Z,13.50
2023-04-18T22:50:20.785Z,12.95
2023-04-18T22:52:48.141Z,13.80
2023-04-18T22:55:16.710Z,15.27
2023-04-18T22:57:43.890Z,15.23
2023-04-18T23:00:11.457Z,12.77
2023-04-18T23:02:38.979Z,14.18
2023-04-18T23:05:07.391Z,12.35
2023-04-18T23:07:34.898Z,14.60
2023-04-18T23:10:04.021Z,12.73
2023-04-18T23:12:30.795Z,12.70
2023-04-18T23:14:58.124Z,12.15
2023-04-18T23:17:25.422Z,15.02
2023-04-18T23:19:52.899Z,18.42
2023-04-18T23:22:20.391Z,14.10
2023-04-18T23:24:47.572Z,14.60
2023-04-18T23:27:14.834Z,10.75
2023-04-18T23:29:42.575Z,14.65
2023-04-18T23:32:09.953Z,15.38
2023-04-18T23:34:37.523Z,16.58
2023-04-18T23:37:04.741Z,14.27
2023-04-18T23:39:32.024Z,14.63
2023-04-18T23:41:58.826Z,15.90
2023-04-18T23:44:26.022Z,13.52
2023-04-18T23:46:53.278Z,13.73
2023-04-18T23:49:20.588Z,11.70
2023-04-18T23:51:48.055Z,14.57
2023-04-18T23:54:15.424Z,14.85
2023-04-18T23:56:43.301Z,14.10
2023-04-18T23:59:10.529Z,14.30
